createdAt,value
2018-11-12T00:00:24.689Z,71.96
2018-11-12T00:08:45.669Z,72.46
2018-11-12T00:17:06.743Z,71.98
2018-11-12T00:25:27.726Z,71.43
2018-11-12T00:33:48.764Z,71.80
2018-11-12T00:42:09.767Z,71.10
2018-11-12T00:50:30.805Z,71.97
2018-11-12T00:58:52.118Z,71.21
2018-11-12T01:07:13.107Z,71.62
2018-11-12T01:15:34.109Z,71.90
2018-11-12T01:23:55.086Z,71.23
2018-11-12T01:32:16.137Z,71.40
2018-11-12T01:40:37.156Z,74.61
2018-11-12T01:48:58.176Z,72.76
2018-11-12T01:57:19.196Z,73.19
2018-11-12T02:05:40.217Z,72.21
2018-11-12T02:14:01.198Z,72.67
2018-11-12T02:22:22.215Z,73.15
2018-11-12T02:30:43.197Z,73.92
2018-11-12T02:39:04.293Z,73.60
2018-11-12T02:47:25.290Z,74.25
2018-11-12T02:55:46.292Z,73.35
2018-11-12T03:04:07.274Z,72.88
2018-11-12T03:12:28.259Z,73.28
2018-11-12T03:20:49.288Z,72.50
2018-11-12T03:29:10.309Z,71.22
2018-11-12T03:37:31.299Z,72.19
2018-11-12T03:45:52.320Z,72.23
2018-11-12T03:54:13.305Z,73.38
2018-11-12T04:02:34.326Z,72.75
2018-11-12T04:10:55.310Z,73.30
2018-11-12T04:19:16.330Z,73.25
2018-11-12T04:27:37.357Z,73.58
2018-11-12T04:35:58.401Z,74.25
2018-11-12T04:44:19.419Z,73.69
2018-11-12T04:52:40.489Z,73.21
2018-11-12T05:01:01.493Z,72.93
2018-11-12T05:09:22.493Z,73.19
2018-11-12T05:17:43.544Z,74.25
2018-11-12T05:26:04.531Z,73.28
2018-11-12T05:34:25.513Z,74.03
2018-11-12T05:42:46.534Z,74.32
2018-11-12T05:51:07.518Z,73.53
2018-11-12T05:59:28.525Z,73.77
2018-11-12T06:07:49.510Z,74.51
2018-11-12T06:16:10.510Z,74.94
2018-11-12T06:24:31.534Z,74.50
2018-11-12T06:32:52.531Z,74.15
2018-11-12T06:41:13.560Z,75.52
2018-11-12T06:49:34.586Z,74.48
2018-11-12T06:57:55.613Z,74.15
2018-11-12T07:06:16.607Z,74.99
2018-11-12T07:14:37.617Z,75.39
2018-11-12T07:22:58.721Z,74.75
2018-11-12T07:31:19.747Z,74.76
2018-11-12T07:39:40.783Z,74.87
2018-11-12T07:48:01.781Z,74.91
2018-11-12T07:56:22.815Z,74.48
2018-11-12T08:04:43.792Z,75.35
2018-11-12T08:13:04.789Z,75.51
2018-11-12T08:21:25.789Z,75.54
2018-11-12T08:29:46.910Z,74.37
2018-11-12T08:38:07.866Z,73.89
2018-11-12T08:46:28.917Z,74.71
2018-11-12T08:54:49.953Z,74.68
2018-11-12T09:03:10.956Z,74.01
2018-11-12T09:11:31.950Z,72.74
2018-11-12T09:19:52.991Z,73.14
2018-11-12T09:28:13.999Z,72.98
2018-11-12T09:36:35.072Z,73.25
2018-11-12T09:44:56.069Z,72.39
2018-11-12T09:53:17.092Z,71.56
2018-11-12T10:01:38.569Z,69.37
2018-11-12T10:10:01.472Z,68.71
2018-11-12T10:18:20.176Z,70.37
2018-11-12T10:26:41.191Z,68.02
2018-11-12T10:35:02.174Z,68.91
2018-11-12T10:43:23.169Z,66.72
2018-11-12T10:51:44.188Z,68.23
2018-11-12T11:00:05.208Z,68.90
2018-11-12T11:08:26.209Z,69.26
2018-11-12T11:16:47.228Z,68.45
2018-11-12T11:25:08.256Z,67.34
2018-11-12T11:33:29.394Z,67.86
2018-11-12T11:41:50.378Z,66.25
2018-11-12T11:50:11.448Z,65.38
2018-11-12T11:58:32.437Z,63.39
2018-11-12T12:06:53.414Z,64.59
2018-11-12T12:15:14.423Z,63.21
2018-11-12T12:23:35.402Z,61.58
2018-11-12T12:31:56.405Z,63.01
2018-11-12T12:40:17.424Z,64.50
2018-11-12T12:56:59.256Z,68.90
2018-11-12T13:05:20.238Z,68.70
2018-11-12T13:13:41.243Z,70.28
2018-11-12T13:22:02.226Z,70.85
2018-11-12T13:30:23.237Z,72.33
2018-11-12T13:38:44.343Z,72.58
2018-11-12T13:47:05.329Z,74.50
2018-11-12T13:55:26.348Z,76.04
2018-11-12T14:03:47.334Z,76.04
2018-11-12T14:12:08.357Z,74.71
2018-11-12T14:20:29.451Z,74.78
2018-11-12T14:28:50.427Z,75.54
2018-11-12T14:37:11.446Z,74.30
2018-11-12T14:45:32.458Z,73.94
2018-11-12T14:53:53.457Z,73.31
2018-11-12T15:02:14.442Z,74.62
2018-11-12T15:10:35.426Z,75.07
2018-11-12T15:18:56.421Z,74.37
2018-11-12T15:27:17.403Z,74.15
2018-11-12T15:35:38.428Z,74.77
2018-11-12T15:43:59.425Z,75.38
2018-11-12T15:52:20.435Z,74.97
2018-11-12T16:00:41.433Z,74.86
2018-11-12T16:09:02.441Z,74.30
2018-11-12T16:17:23.419Z,74.79
2018-11-12T16:25:44.429Z,74.96
2018-11-12T16:34:05.455Z,74.04
2018-11-12T16:42:26.484Z,74.13
2018-11-12T16:50:47.473Z,73.46
2018-11-12T16:59:08.455Z,74.67
2018-11-12T17:07:29.451Z,74.58
2018-11-12T17:15:50.438Z,74.74
2018-11-12T17:24:11.465Z,74.77
2018-11-12T17:32:32.473Z,74.30
2018-11-12T17:40:53.472Z,74.90
2018-11-12T17:49:14.565Z,74.56
2018-11-12T17:57:35.570Z,74.37
2018-11-12T18:05:56.636Z,74.12
2018-11-12T18:14:17.660Z,73.79
2018-11-12T18:22:38.684Z,74.56
2018-11-12T18:30:59.714Z,75.39
2018-11-12T18:39:20.714Z,74.86
2018-11-12T18:47:41.741Z,75.67
2018-11-12T18:56:02.736Z,75.89
2018-11-12T19:04:23.960Z,75.52
2018-11-12T19:12:44.962Z,76.44
2018-11-12T19:21:05.986Z,76.51
2018-11-12T19:29:27.012Z,75.24
2018-11-12T19:37:48.032Z,75.33
2018-11-12T19:46:09.056Z,74.61
2018-11-12T19:54:30.145Z,74.11
2018-11-12T20:02:51.147Z,74.50
2018-11-12T20:11:12.214Z,74.69
2018-11-12T20:19:33.238Z,73.60
2018-11-12T20:27:54.237Z,73.18
2018-11-12T20:36:15.268Z,73.87
2018-11-12T20:44:36.249Z,73.06
2018-11-12T20:52:57.277Z,74.01
2018-11-12T21:01:18.293Z,72.59
2018-11-12T21:09:39.376Z,73.17
2018-11-12T21:18:00.415Z,72.66
2018-11-12T21:26:21.471Z,72.33
2018-11-12T21:34:42.657Z,72.76
2018-11-12T21:43:03.878Z,72.66
2018-11-12T21:51:24.915Z,74.21
2018-11-12T21:59:46.150Z,73.48
2018-11-12T22:08:07.242Z,73.25
2018-11-12T22:16:28.395Z,74.83
2018-11-12T22:24:49.562Z,75.04
2018-11-12T22:33:10.617Z,74.63
2018-11-12T22:41:31.640Z,75.50
2018-11-12T22:49:52.645Z,74.03
2018-11-12T22:58:13.626Z,74.40
2018-11-12T23:06:34.626Z,74.04
2018-11-12T23:14:55.695Z,75.10
2018-11-12T23:23:16.678Z,74.00
2018-11-12T23:31:37.677Z,74.38
2018-11-12T23:39:58.681Z,75.01
2018-11-12T23:48:19.681Z,75.58
2018-11-12T23:56:40.673Z,74.77
